sensor_id;sensor_type;location;lat;lon;timestamp;P1;durP1;ratioP1;P2;durP2;ratioP2
7529;SDS011;3806;52.270;10.544;2023-06-14T00:01:43;3.22;;;2.28;;
7529;SDS011;3806;52.270;10.544;2023-06-14T00:04:11;3.05;;;1.92;;
7529;SDS011;3806;52.270;10.544;2023-06-14T00:06:37;4.10;;;2.20;;
7529;SDS011;3806;52.270;10.544;2023-06-14T00:09:03;2.90;;;2.05;;
7529;SDS011;3806;52.270;10.544;2023-06-14T00:11:29;3.58;;;1.88;;
7529;SDS011;3806;52.270;10.544;2023-06-14T00:13:55;6.55;;;2.53;;
7529;SDS011;3806;52.270;10.544;2023-06-14T00:16:21;3.42;;;1.88;;
7529;SDS011;3806;52.270;10.544;2023-06-14T00:18:47;3.00;;;2.25;;
7529;SDS011;3806;52.270;10.544;2023-06-14T00:21:13;3.03;;;1.60;;
7529;SDS011;3806;52.270;10.544;2023-06-14T00:23:39;8.10;;;2.22;;
7529;SDS011;3806;52.270;10.544;2023-06-14T00:26:04;4.32;;;1.98;;
7529;SDS011;3806;52.270;10.544;2023-06-14T00:28:30;4.93;;;1.88;;
7529;SDS011;3806;52.270;10.544;2023-06-14T00:30:55;2.10;;;1.55;;
7529;SDS011;3806;52.270;10.544;2023-06-14T00:33:21;3.65;;;1.95;;
7529;SDS011;3806;52.270;10.544;2023-06-14T00:35:46;3.45;;;2.25;;
7529;SDS011;3806;52.270;10.544;2023-06-14T00:38:12;5.40;;;1.77;;
7529;SDS011;3806;52.270;10.544;2023-06-14T00:40:38;2.78;;;2.17;;
7529;SDS011;3806;52.270;10.544;2023-06-14T00:43:03;4.22;;;1.85;;
7529;SDS011;3806;52.270;10.544;2023-06-14T00:45:29;5.63;;;2.00;;
7529;SDS011;3806;52.270;10.544;2023-06-14T00:47:56;4.47;;;1.63;;
7529;SDS011;3806;52.270;10.544;2023-06-14T00:50:22;3.72;;;2.17;;
7529;SDS011;3806;52.270;10.544;2023-06-14T00:52:48;3.97;;;1.85;;
7529;SDS011;3806;52.270;10.544;2023-06-14T00:55:14;4.82;;;1.75;;
7529;SDS011;3806;52.270;10.544;2023-06-14T00:57:40;2.80;;;1.60;;
7529;SDS011;3806;52.270;10.544;2023-06-14T01:00:06;3.85;;;1.92;;
7529;SDS011;3806;52.270;10.544;2023-06-14T01:02:37;3.55;;;1.80;;
7529;SDS011;3806;52.270;10.544;2023-06-14T01:05:03;3.85;;;1.98;;
7529;SDS011;3806;52.270;10.544;2023-06-14T01:13:33;5.00;;;2.25;;
7529;SDS011;3806;52.270;10.544;2023-06-14T01:16:01;3.65;;;1.80;;
7529;SDS011;3806;52.270;10.544;2023-06-14T01:18:28;4.05;;;1.85;;
7529;SDS011;3806;52.270;10.544;2023-06-14T01:20:54;4.30;;;1.85;;
7529;SDS011;3806;52.270;10.544;2023-06-14T01:23:21;2.88;;;1.92;;
7529;SDS011;3806;52.270;10.544;2023-06-14T01:25:47;5.53;;;1.90;;
7529;SDS011;3806;52.270;10.544;2023-06-14T01:28:17;2.40;;;1.63;;
7529;SDS011;3806;52.270;10.544;2023-06-14T01:30:46;2.90;;;1.77;;
7529;SDS011;3806;52.270;10.544;2023-06-14T01:33:18;2.58;;;1.85;;
7529;SDS011;3806;52.270;10.544;2023-06-14T01:35:47;7.05;;;1.88;;
7529;SDS011;3806;52.270;10.544;2023-06-14T01:38:16;4.03;;;1.88;;
7529;SDS011;3806;52.270;10.544;2023-06-14T01:40:44;4.03;;;1.65;;
7529;SDS011;3806;52.270;10.544;2023-06-14T01:43:10;2.50;;;1.55;;
7529;SDS011;3806;52.270;10.544;2023-06-14T01:45:38;2.95;;;1.85;;
7529;SDS011;3806;52.270;10.544;2023-06-14T01:48:05;2.80;;;1.80;;
7529;SDS011;3806;52.270;10.544;2023-06-14T01:50:31;2.15;;;1.92;;
7529;SDS011;3806;52.270;10.544;2023-06-14T01:52:57;6.30;;;2.00;;
7529;SDS011;3806;52.270;10.544;2023-06-14T01:55:22;3.72;;;2.05;;
7529;SDS011;3806;52.270;10.544;2023-06-14T01:57:49;3.00;;;2.00;;
7529;SDS011;3806;52.270;10.544;2023-06-14T02:00:15;4.38;;;1.70;;
7529;SDS011;3806;52.270;10.544;2023-06-14T02:02:43;4.70;;;2.20;;
7529;SDS011;3806;52.270;10.544;2023-06-14T02:05:08;2.03;;;1.73;;
7529;SDS011;3806;52.270;10.544;2023-06-14T02:07:35;3.28;;;1.88;;
7529;SDS011;3806;52.270;10.544;2023-06-14T02:10:01;2.72;;;2.00;;
7529;SDS011;3806;52.270;10.544;2023-06-14T02:12:27;4.60;;;2.17;;
7529;SDS011;3806;52.270;10.544;2023-06-14T02:14:53;2.75;;;2.08;;
7529;SDS011;3806;52.270;10.544;2023-06-14T02:17:19;6.78;;;2.22;;
7529;SDS011;3806;52.270;10.544;2023-06-14T02:19:45;4.53;;;1.75;;
7529;SDS011;3806;52.270;10.544;2023-06-14T02:22:11;3.70;;;1.88;;
7529;SDS011;3806;52.270;10.544;2023-06-14T02:24:36;3.03;;;1.85;;
7529;SDS011;3806;52.270;10.544;2023-06-14T02:27:02;8.10;;;2.03;;
7529;SDS011;3806;52.270;10.544;2023-06-14T02:29:28;3.58;;;1.90;;
7529;SDS011;3806;52.270;10.544;2023-06-14T02:31:53;2.85;;;2.17;;
7529;SDS011;3806;52.270;10.544;2023-06-14T02:34:19;3.60;;;1.83;;
7529;SDS011;3806;52.270;10.544;2023-06-14T02:36:46;4.97;;;2.40;;
7529;SDS011;3806;52.270;10.544;2023-06-14T02:39:12;4.35;;;1.98;;
7529;SDS011;3806;52.270;10.544;2023-06-14T02:41:38;3.05;;;1.92;;
7529;SDS011;3806;52.270;10.544;2023-06-14T02:44:04;3.22;;;2.10;;
7529;SDS011;3806;52.270;10.544;2023-06-14T02:46:29;3.67;;;2.05;;
7529;SDS011;3806;52.270;10.544;2023-06-14T02:48:55;4.50;;;2.13;;
7529;SDS011;3806;52.270;10.544;2023-06-14T02:51:20;4.63;;;1.80;;
7529;SDS011;3806;52.270;10.544;2023-06-14T02:53:46;3.80;;;2.00;;
7529;SDS011;3806;52.270;10.544;2023-06-14T02:56:11;4.53;;;2.10;;
7529;SDS011;3806;52.270;10.544;2023-06-14T02:58:37;3.10;;;2.03;;
7529;SDS011;3806;52.270;10.544;2023-06-14T03:01:04;5.20;;;2.22;;
7529;SDS011;3806;52.270;10.544;2023-06-14T03:03:30;3.38;;;2.25;;
7529;SDS011;3806;52.270;10.544;2023-06-14T03:05:56;3.75;;;1.73;;
7529;SDS011;3806;52.270;10.544;2023-06-14T03:08:22;5.57;;;2.10;;
7529;SDS011;3806;52.270;10.544;2023-06-14T03:10:52;2.70;;;1.90;;
7529;SDS011;3806;52.270;10.544;2023-06-14T03:13:18;2.63;;;1.83;;
7529;SDS011;3806;52.270;10.544;2023-06-14T03:15:46;3.80;;;2.00;;
7529;SDS011;3806;52.270;10.544;2023-06-14T03:18:12;3.05;;;1.77;;
7529;SDS011;3806;52.270;10.544;2023-06-14T03:20:40;3.55;;;1.85;;
7529;SDS011;3806;52.270;10.544;2023-06-14T03:23:06;3.15;;;1.50;;
7529;SDS011;3806;52.270;10.544;2023-06-14T03:25:32;3.40;;;1.70;;
7529;SDS011;3806;52.270;10.544;2023-06-14T03:28:00;3.35;;;1.73;;
7529;SDS011;3806;52.270;10.544;2023-06-14T03:30:26;2.28;;;1.65;;
7529;SDS011;3806;52.270;10.544;2023-06-14T03:32:52;3.30;;;1.88;;
7529;SDS011;3806;52.270;10.544;2023-06-14T03:35:20;8.15;;;1.80;;
7529;SDS011;3806;52.270;10.544;2023-06-14T03:37:46;3.17;;;1.73;;
7529;SDS011;3806;52.270;10.544;2023-06-14T03:40:12;9.70;;;2.10;;
7529;SDS011;3806;52.270;10.544;2023-06-14T03:42:40;3.53;;;2.10;;
7529;SDS011;3806;52.270;10.544;2023-06-14T03:45:07;3.42;;;1.80;;
7529;SDS011;3806;52.270;10.544;2023-06-14T03:47:33;4.05;;;1.50;;
7529;SDS011;3806;52.270;10.544;2023-06-14T03:49:59;3.10;;;1.90;;
7529;SDS011;3806;52.270;10.544;2023-06-14T03:52:26;3.05;;;1.77;;
7529;SDS011;3806;52.270;10.544;2023-06-14T03:54:51;4.35;;;1.60;;
7529;SDS011;3806;52.270;10.544;2023-06-14T03:57:17;2.25;;;1.80;;
7529;SDS011;3806;52.270;10.544;2023-06-14T03:59:43;5.32;;;1.88;;
7529;SDS011;3806;52.270;10.544;2023-06-14T04:02:09;4.30;;;2.13;;
7529;SDS011;3806;52.270;10.544;2023-06-14T04:04:35;3.08;;;1.65;;
7529;SDS011;3806;52.270;10.544;2023-06-14T04:07:01;3.85;;;2.13;;
7529;SDS011;3806;52.270;10.544;2023-06-14T04:09:28;3.83;;;1.90;;
7529;SDS011;3806;52.270;10.544;2023-06-14T04:11:54;3.97;;;2.08;;
7529;SDS011;3806;52.270;10.544;2023-06-14T04:14:21;2.15;;;1.42;;
7529;SDS011;3806;52.270;10.544;2023-06-14T04:16:47;2.22;;;1.50;;
7529;SDS011;3806;52.270;10.544;2023-06-14T04:19:14;2.55;;;1.80;;
7529;SDS011;3806;52.270;10.544;2023-06-14T04:21:39;2.92;;;1.73;;
7529;SDS011;3806;52.270;10.544;2023-06-14T04:24:05;2.95;;;1.85;;
7529;SDS011;3806;52.270;10.544;2023-06-14T04:26:31;2.75;;;1.85;;
7529;SDS011;3806;52.270;10.544;2023-06-14T04:28:58;2.15;;;1.50;;
7529;SDS011;3806;52.270;10.544;2023-06-14T04:31:26;2.22;;;1.70;;
7529;SDS011;3806;52.270;10.544;2023-06-14T04:33:54;3.03;;;2.58;;
7529;SDS011;3806;52.270;10.544;2023-06-14T04:36:20;3.90;;;1.88;;
7529;SDS011;3806;52.270;10.544;2023-06-14T04:38:46;4.43;;;2.00;;
7529;SDS011;3806;52.270;10.544;2023-06-14T04:41:11;2.60;;;1.83;;
7529;SDS011;3806;52.270;10.544;2023-06-14T04:43:37;3.92;;;2.03;;
7529;SDS011;3806;52.270;10.544;2023-06-14T04:46:06;2.95;;;1.92;;
7529;SDS011;3806;52.270;10.544;2023-06-14T04:48:40;3.88;;;1.77;;
7529;SDS011;3806;52.270;10.544;2023-06-14T04:51:07;2.97;;;1.92;;
7529;SDS011;3806;52.270;10.544;2023-06-14T04:53:33;6.15;;;2.00;;
7529;SDS011;3806;52.270;10.544;2023-06-14T04:55:59;3.28;;;1.58;;
7529;SDS011;3806;52.270;10.544;2023-06-14T04:58:25;2.00;;;1.63;;
7529;SDS011;3806;52.270;10.544;2023-06-14T05:00:52;3.03;;;1.42;;
7529;SDS011;3806;52.270;10.544;2023-06-14T05:03:18;2.75;;;2.15;;
7529;SDS011;3806;52.270;10.544;2023-06-14T05:05:46;3.28;;;1.58;;
7529;SDS011;3806;52.270;10.544;2023-06-14T05:08:11;2.58;;;1.60;;
7529;SDS011;3806;52.270;10.544;2023-06-14T05:10:37;2.03;;;1.45;;
7529;SDS011;3806;52.270;10.544;2023-06-14T05:13:03;1.98;;;1.40;;
7529;SDS011;3806;52.270;10.544;2023-06-14T05:15:29;4.65;;;1.77;;
7529;SDS011;3806;52.270;10.544;2023-06-14T05:17:55;4.30;;;1.58;;
7529;SDS011;3806;52.270;10.544;2023-06-14T05:20:24;3.83;;;1.92;;
7529;SDS011;3806;52.270;10.544;2023-06-14T05:22:50;8.10;;;1.83;;
7529;SDS011;3806;52.270;10.544;2023-06-14T05:25:21;5.05;;;1.85;;
7529;SDS011;3806;52.270;10.544;2023-06-14T05:27:47;4.00;;;1.65;;
7529;SDS011;3806;52.270;10.544;2023-06-14T05:30:14;11.07;;;2.25;;
7529;SDS011;3806;52.270;10.544;2023-06-14T05:32:41;2.88;;;1.60;;
7529;SDS011;3806;52.270;10.544;2023-06-14T05:35:07;2.28;;;1.35;;
7529;SDS011;3806;52.270;10.544;2023-06-14T05:37:33;4.18;;;1.30;;
7529;SDS011;3806;52.270;10.544;2023-06-14T05:39:58;9.65;;;1.90;;
7529;SDS011;3806;52.270;10.544;2023-06-14T05:42:24;2.58;;;1.67;;
7529;SDS011;3806;52.270;10.544;2023-06-14T05:44:49;2.70;;;1.42;;
7529;SDS011;3806;52.270;10.544;2023-06-14T05:47:15;1.98;;;1.38;;
7529;SDS011;3806;52.270;10.544;2023-06-14T05:49:41;3.78;;;1.85;;
7529;SDS011;3806;52.270;10.544;2023-06-14T05:52:07;3.53;;;1.88;;
7529;SDS011;3806;52.270;10.544;2023-06-14T05:54:32;6.38;;;2.00;;
7529;SDS011;3806;52.270;10.544;2023-06-14T05:56:58;2.67;;;1.88;;
7529;SDS011;3806;52.270;10.544;2023-06-14T05:59:29;4.95;;;2.00;;
7529;SDS011;3806;52.270;10.544;2023-06-14T06:01:54;3.75;;;2.00;;
7529;SDS011;3806;52.270;10.544;2023-06-14T06:04:20;3.47;;;2.20;;
7529;SDS011;3806;52.270;10.544;2023-06-14T06:06:46;2.28;;;1.50;;
7529;SDS011;3806;52.270;10.544;2023-06-14T06:09:12;2.20;;;1.45;;
7529;SDS011;3806;52.270;10.544;2023-06-14T06:11:39;2.40;;;1.67;;
7529;SDS011;3806;52.270;10.544;2023-06-14T06:14:05;2.13;;;1.55;;
7529;SDS011;3806;52.270;10.544;2023-06-14T06:16:31;2.28;;;1.67;;
7529;SDS011;3806;52.270;10.544;2023-06-14T06:18:57;3.40;;;1.95;;
7529;SDS011;3806;52.270;10.544;2023-06-14T06:21:22;3.88;;;2.30;;
7529;SDS011;3806;52.270;10.544;2023-06-14T06:23:48;3.92;;;2.22;;
7529;SDS011;3806;52.270;10.544;2023-06-14T06:26:13;4.15;;;1.90;;
7529;SDS011;3806;52.270;10.544;2023-06-14T06:28:39;4.57;;;2.00;;
7529;SDS011;3806;52.270;10.544;2023-06-14T06:31:04;3.97;;;2.22;;
7529;SDS011;3806;52.270;10.544;2023-06-14T06:33:30;3.50;;;1.70;;
7529;SDS011;3806;52.270;10.544;2023-06-14T06:35:55;4.20;;;1.77;;
7529;SDS011;3806;52.270;10.544;2023-06-14T06:38:21;5.45;;;2.03;;
7529;SDS011;3806;52.270;10.544;2023-06-14T06:40:46;3.55;;;1.73;;
7529;SDS011;3806;52.270;10.544;2023-06-14T06:43:12;3.90;;;2.05;;
7529;SDS011;3806;52.270;10.544;2023-06-14T06:45:42;3.15;;;1.60;;
7529;SDS011;3806;52.270;10.544;2023-06-14T06:48:07;2.80;;;1.83;;
7529;SDS011;3806;52.270;10.544;2023-06-14T06:50:35;3.83;;;1.77;;
7529;SDS011;3806;52.270;10.544;2023-06-14T06:53:00;3.13;;;1.98;;
7529;SDS011;3806;52.270;10.544;2023-06-14T06:55:26;5.13;;;2.13;;
7529;SDS011;3806;52.270;10.544;2023-06-14T06:57:51;5.93;;;2.40;;
7529;SDS011;3806;52.270;10.544;2023-06-14T07:00:18;3.58;;;2.20;;
7529;SDS011;3806;52.270;10.544;2023-06-14T07:02:44;3.92;;;1.88;;
7529;SDS011;3806;52.270;10.544;2023-06-14T07:05:10;3.47;;;1.90;;
7529;SDS011;3806;52.270;10.544;2023-06-14T07:07:36;4.10;;;1.92;;
7529;SDS011;3806;52.270;10.544;2023-06-14T07:10:02;2.60;;;1.75;;
7529;SDS011;3806;52.270;10.544;2023-06-14T07:12:30;4.03;;;2.00;;
7529;SDS011;3806;52.270;10.544;2023-06-14T07:14:58;6.00;;;1.92;;
7529;SDS011;3806;52.270;10.544;2023-06-14T07:17:24;4.13;;;2.20;;
7529;SDS011;3806;52.270;10.544;2023-06-14T07:19:50;3.67;;;1.58;;
7529;SDS011;3806;52.270;10.544;2023-06-14T07:22:16;1.60;;;1.27;;
7529;SDS011;3806;52.270;10.544;2023-06-14T07:24:42;2.70;;;1.85;;
7529;SDS011;3806;52.270;10.544;2023-06-14T07:27:08;2.47;;;1.67;;
7529;SDS011;3806;52.270;10.544;2023-06-14T07:29:33;4.05;;;1.90;;
7529;SDS011;3806;52.270;10.544;2023-06-14T07:31:59;1.98;;;1.50;;
7529;SDS011;3806;52.270;10.544;2023-06-14T07:34:24;3.05;;;1.75;;
7529;SDS011;3806;52.270;10.544;2023-06-14T07:36:51;4.22;;;1.50;;
7529;SDS011;3806;52.270;10.544;2023-06-14T07:39:16;4.07;;;1.73;;
7529;SDS011;3806;52.270;10.544;2023-06-14T07:41:42;4.32;;;1.75;;
7529;SDS011;3806;52.270;10.544;2023-06-14T07:44:07;2.35;;;1.67;;
7529;SDS011;3806;52.270;10.544;2023-06-14T07:46:33;3.20;;;1.60;;
7529;SDS011;3806;52.270;10.544;2023-06-14T07:48:59;4.35;;;1.85;;
7529;SDS011;3806;52.270;10.544;2023-06-14T07:51:25;2.60;;;1.55;;
7529;SDS011;3806;52.270;10.544;2023-06-14T07:53:51;2.75;;;1.45;;
7529;SDS011;3806;52.270;10.544;2023-06-14T07:56:16;2.15;;;1.50;;
7529;SDS011;3806;52.270;10.544;2023-06-14T07:58:42;2.55;;;1.70;;
7529;SDS011;3806;52.270;10.544;2023-06-14T08:01:08;2.72;;;1.65;;
7529;SDS011;3806;52.270;10.544;2023-06-14T08:03:34;2.42;;;1.33;;
7529;SDS011;3806;52.270;10.544;2023-06-14T08:05:59;2.20;;;1.40;;
7529;SDS011;3806;52.270;10.544;2023-06-14T08:08:25;2.58;;;1.67;;
7529;SDS011;3806;52.270;10.544;2023-06-14T08:10:51;1.60;;;1.50;;
7529;SDS011;3806;52.270;10.544;2023-06-14T08:13:17;4.78;;;1.67;;
7529;SDS011;3806;52.270;10.544;2023-06-14T08:15:42;2.38;;;1.65;;
7529;SDS011;3806;52.270;10.544;2023-06-14T08:18:08;2.22;;;1.40;;
7529;SDS011;3806;52.270;10.544;2023-06-14T08:20:35;2.42;;;1.60;;
7529;SDS011;3806;52.270;10.544;2023-06-14T08:23:02;2.80;;;1.90;;
7529;SDS011;3806;52.270;10.544;2023-06-14T08:25:29;2.53;;;1.60;;
7529;SDS011;3806;52.270;10.544;2023-06-14T08:27:55;2.65;;;1.67;;
7529;SDS011;3806;52.270;10.544;2023-06-14T08:30:21;2.25;;;1.55;;
7529;SDS011;3806;52.270;10.544;2023-06-14T08:32:47;2.63;;;1.60;;
7529;SDS011;3806;52.270;10.544;2023-06-14T08:35:12;2.30;;;1.58;;
7529;SDS011;3806;52.270;10.544;2023-06-14T08:37:41;3.25;;;1.65;;
7529;SDS011;3806;52.270;10.544;2023-06-14T08:40:28;2.50;;;1.40;;
7529;SDS011;3806;52.270;10.544;2023-06-14T08:42:54;2.33;;;1.50;;
7529;SDS011;3806;52.270;10.544;2023-06-14T08:45:20;2.22;;;1.88;;
7529;SDS011;3806;52.270;10.544;2023-06-14T08:47:47;1.60;;;1.20;;
7529;SDS011;3806;52.270;10.544;2023-06-14T08:50:23;2.08;;;1.70;;
7529;SDS011;3806;52.270;10.544;2023-06-14T08:52:55;3.92;;;1.58;;
7529;SDS011;3806;52.270;10.544;2023-06-14T08:55:25;5.13;;;1.50;;
7529;SDS011;3806;52.270;10.544;2023-06-14T08:57:56;3.08;;;1.50;;
7529;SDS011;3806;52.270;10.544;2023-06-14T09:00:26;1.83;;;1.60;;
7529;SDS011;3806;52.270;10.544;2023-06-14T09:02:53;1.65;;;1.27;;
7529;SDS011;3806;52.270;10.544;2023-06-14T09:05:22;3.50;;;1.40;;
7529;SDS011;3806;52.270;10.544;2023-06-14T09:07:49;2.65;;;1.60;;
7529;SDS011;3806;52.270;10.544;2023-06-14T09:10:15;3.65;;;1.73;;
7529;SDS011;3806;52.270;10.544;2023-06-14T09:12:41;2.75;;;1.67;;
7529;SDS011;3806;52.270;10.544;2023-06-14T09:15:07;4.00;;;1.63;;
7529;SDS011;3806;52.270;10.544;2023-06-14T09:17:37;4.00;;;1.50;;
7529;SDS011;3806;52.270;10.544;2023-06-14T09:20:04;2.70;;;1.60;;
7529;SDS011;3806;52.270;10.544;2023-06-14T09:22:33;2.28;;;1.42;;
7529;SDS011;3806;52.270;10.544;2023-06-14T09:24:58;2.03;;;1.50;;
7529;SDS011;3806;52.270;10.544;2023-06-14T09:27:25;1.95;;;1.50;;
7529;SDS011;3806;52.270;10.544;2023-06-14T09:29:51;1.88;;;1.38;;
7529;SDS011;3806;52.270;10.544;2023-06-14T09:32:17;1.83;;;1.42;;
7529;SDS011;3806;52.270;10.544;2023-06-14T09:34:43;2.30;;;1.60;;
7529;SDS011;3806;52.270;10.544;2023-06-14T09:37:09;2.67;;;1.75;;
7529;SDS011;3806;52.270;10.544;2023-06-14T09:39:34;3.03;;;1.67;;
7529;SDS011;3806;52.270;10.544;2023-06-14T09:42:00;1.98;;;1.65;;
7529;SDS011;3806;52.270;10.544;2023-06-14T09:44:25;2.42;;;1.80;;
7529;SDS011;3806;52.270;10.544;2023-06-14T09:46:53;1.88;;;1.60;;
7529;SDS011;3806;52.270;10.544;2023-06-14T09:49:20;4.43;;;1.75;;
7529;SDS011;3806;52.270;10.544;2023-06-14T09:51:46;2.65;;;1.73;;
7529;SDS011;3806;52.270;10.544;2023-06-14T09:54:20;6.40;;;1.50;;
7529;SDS011;3806;52.270;10.544;2023-06-14T09:56:48;2.33;;;1.30;;
7529;SDS011;3806;52.270;10.544;2023-06-14T09:59:16;2.78;;;1.55;;
7529;SDS011;3806;52.270;10.544;2023-06-14T10:01:46;2.80;;;1.73;;
7529;SDS011;3806;52.270;10.544;2023-06-14T10:04:12;2.50;;;1.80;;
7529;SDS011;3806;52.270;10.544;2023-06-14T10:06:40;2.78;;;1.73;;
7529;SDS011;3806;52.270;10.544;2023-06-14T10:09:10;3.78;;;1.50;;
7529;SDS011;3806;52.270;10.544;2023-06-14T10:11:37;2.97;;;1.55;;
7529;SDS011;3806;52.270;10.544;2023-06-14T10:14:08;3.25;;;1.60;;
7529;SDS011;3806;52.270;10.544;2023-06-14T10:19:25;3.50;;;1.65;;
7529;SDS011;3806;52.270;10.544;2023-06-14T10:22:14;3.58;;;2.25;;
7529;SDS011;3806;52.270;10.544;2023-06-14T10:24:45;3.60;;;1.42;;
7529;SDS011;3806;52.270;10.544;2023-06-14T10:27:13;2.58;;;1.67;;
7529;SDS011;3806;52.270;10.544;2023-06-14T10:32:23;3.55;;;1.73;;
7529;SDS011;3806;52.270;10.544;2023-06-14T10:35:00;6.63;;;2.00;;
7529;SDS011;3806;52.270;10.544;2023-06-14T10:37:29;4.63;;;1.90;;
7529;SDS011;3806;52.270;10.544;2023-06-14T10:39:55;2.00;;;1.58;;
7529;SDS011;3806;52.270;10.544;2023-06-14T10:42:20;2.55;;;1.83;;
7529;SDS011;3806;52.270;10.544;2023-06-14T10:44:51;4.63;;;1.77;;
7529;SDS011;3806;52.270;10.544;2023-06-14T10:47:22;2.83;;;2.00;;
7529;SDS011;3806;52.270;10.544;2023-06-14T10:49:57;4.60;;;1.85;;
7529;SDS011;3806;52.270;10.544;2023-06-14T10:52:28;5.10;;;2.20;;
7529;SDS011;3806;52.270;10.544;2023-06-14T10:55:13;4.10;;;1.83;;
7529;SDS011;3806;52.270;10.544;2023-06-14T10:57:45;3.55;;;1.92;;
7529;SDS011;3806;52.270;10.544;2023-06-14T11:00:21;3.95;;;1.73;;
7529;SDS011;3806;52.270;10.544;2023-06-14T11:05:52;2.72;;;1.92;;
7529;SDS011;3806;52.270;10.544;2023-06-14T11:11:22;4.68;;;2.10;;
7529;SDS011;3806;52.270;10.544;2023-06-14T11:13:49;4.40;;;2.20;;
7529;SDS011;3806;52.270;10.544;2023-06-14T11:16:16;4.93;;;2.08;;
7529;SDS011;3806;52.270;10.544;2023-06-14T11:18:44;7.47;;;2.00;;
7529;SDS011;3806;52.270;10.544;2023-06-14T11:21:10;3.88;;;2.13;;
7529;SDS011;3806;52.270;10.544;2023-06-14T11:23:36;5.63;;;2.13;;
7529;SDS011;3806;52.270;10.544;2023-06-14T11:26:02;2.40;;;1.95;;
7529;SDS011;3806;52.270;10.544;2023-06-14T11:28:38;4.38;;;2.10;;
7529;SDS011;3806;52.270;10.544;2023-06-14T11:31:06;5.63;;;2.40;;
7529;SDS011;3806;52.270;10.544;2023-06-14T11:33:32;3.65;;;2.40;;
7529;SDS011;3806;52.270;10.544;2023-06-14T11:35:57;3.35;;;2.30;;
7529;SDS011;3806;52.270;10.544;2023-06-14T11:38:23;7.03;;;2.40;;
7529;SDS011;3806;52.270;10.544;2023-06-14T11:40:49;6.13;;;2.40;;
7529;SDS011;3806;52.270;10.544;2023-06-14T11:43:15;4.78;;;2.63;;
7529;SDS011;3806;52.270;10.544;2023-06-14T11:45:41;2.92;;;2.13;;
7529;SDS011;3806;52.270;10.544;2023-06-14T11:48:06;6.35;;;2.15;;
7529;SDS011;3806;52.270;10.544;2023-06-14T11:50:32;3.35;;;2.03;;
7529;SDS011;3806;52.270;10.544;2023-06-14T11:53:02;4.93;;;2.25;;
7529;SDS011;3806;52.270;10.544;2023-06-14T11:55:32;3.67;;;2.10;;
7529;SDS011;3806;52.270;10.544;2023-06-14T11:58:05;3.00;;;2.25;;
7529;SDS011;3806;52.270;10.544;2023-06-14T12:00:30;7.18;;;2.50;;
7529;SDS011;3806;52.270;10.544;2023-06-14T12:02:59;3.20;;;2.55;;
7529;SDS011;3806;52.270;10.544;2023-06-14T12:05:25;6.47;;;2.33;;
7529;SDS011;3806;52.270;10.544;2023-06-14T12:08:00;9.38;;;3.42;;
7529;SDS011;3806;52.270;10.544;2023-06-14T12:10:27;4.47;;;2.78;;
7529;SDS011;3806;52.270;10.544;2023-06-14T12:12:56;8.75;;;3.78;;
7529;SDS011;3806;52.270;10.544;2023-06-14T12:15:23;3.50;;;2.17;;
7529;SDS011;3806;52.270;10.544;2023-06-14T12:17:49;3.63;;;2.10;;
7529;SDS011;3806;52.270;10.544;2023-06-14T12:20:15;3.70;;;2.40;;
7529;SDS011;3806;52.270;10.544;2023-06-14T12:22:58;5.65;;;2.10;;
7529;SDS011;3806;52.270;10.544;2023-06-14T12:25:34;4.63;;;2.65;;
7529;SDS011;3806;52.270;10.544;2023-06-14T12:28:04;5.45;;;2.10;;
7529;SDS011;3806;52.270;10.544;2023-06-14T12:30:31;3.67;;;2.10;;
7529;SDS011;3806;52.270;10.544;2023-06-14T12:32:57;5.15;;;2.65;;
7529;SDS011;3806;52.270;10.544;2023-06-14T12:35:22;3.42;;;2.22;;
7529;SDS011;3806;52.270;10.544;2023-06-14T12:37:48;6.80;;;2.33;;
7529;SDS011;3806;52.270;10.544;2023-06-14T12:40:14;3.28;;;2.00;;
7529;SDS011;3806;52.270;10.544;2023-06-14T12:42:40;4.07;;;2.30;;
7529;SDS011;3806;52.270;10.544;2023-06-14T12:45:06;3.90;;;2.10;;
7529;SDS011;3806;52.270;10.544;2023-06-14T12:47:31;3.85;;;2.25;;
7529;SDS011;3806;52.270;10.544;2023-06-14T12:49:57;3.20;;;2.08;;
7529;SDS011;3806;52.270;10.544;2023-06-14T12:52:22;5.10;;;2.22;;
7529;SDS011;3806;52.270;10.544;2023-06-14T12:54:49;5.05;;;2.05;;
7529;SDS011;3806;52.270;10.544;2023-06-14T12:57:15;3.33;;;2.40;;
7529;SDS011;3806;52.270;10.544;2023-06-14T12:59:40;3.60;;;2.00;;
7529;SDS011;3806;52.270;10.544;2023-06-14T13:04:37;3.35;;;1.73;;
7529;SDS011;3806;52.270;10.544;2023-06-14T13:07:03;3.22;;;1.88;;
7529;SDS011;3806;52.270;10.544;2023-06-14T13:09:29;5.60;;;2.50;;
7529;SDS011;3806;52.270;10.544;2023-06-14T13:11:54;8.77;;;2.50;;
7529;SDS011;3806;52.270;10.544;2023-06-14T13:14:20;5.10;;;2.35;;
7529;SDS011;3806;52.270;10.544;2023-06-14T13:16:45;2.53;;;2.17;;
7529;SDS011;3806;52.270;10.544;2023-06-14T13:19:11;7.38;;;3.17;;
7529;SDS011;3806;52.270;10.544;2023-06-14T13:21:36;4.90;;;2.10;;
7529;SDS011;3806;52.270;10.544;2023-06-14T13:24:02;4.22;;;2.25;;
7529;SDS011;3806;52.270;10.544;2023-06-14T13:26:27;3.25;;;2.20;;
7529;SDS011;3806;52.270;10.544;2023-06-14T13:28:53;6.05;;;2.08;;
7529;SDS011;3806;52.270;10.544;2023-06-14T13:31:18;4.95;;;2.35;;
7529;SDS011;3806;52.270;10.544;2023-06-14T13:33:44;5.07;;;2.25;;
7529;SDS011;3806;52.270;10.544;2023-06-14T13:36:09;6.32;;;2.30;;
7529;SDS011;3806;52.270;10.544;2023-06-14T13:38:35;5.05;;;2.08;;
7529;SDS011;3806;52.270;10.544;2023-06-14T13:41:00;5.45;;;2.33;;
7529;SDS011;3806;52.270;10.544;2023-06-14T13:43:26;8.60;;;2.40;;
7529;SDS011;3806;52.270;10.544;2023-06-14T13:45:51;4.30;;;2.33;;
7529;SDS011;3806;52.270;10.544;2023-06-14T13:48:17;3.33;;;2.30;;
7529;SDS011;3806;52.270;10.544;2023-06-14T13:50:43;6.53;;;2.63;;
7529;SDS011;3806;52.270;10.544;2023-06-14T13:53:09;4.60;;;2.38;;
7529;SDS011;3806;52.270;10.544;2023-06-14T13:55:34;4.15;;;2.50;;
7529;SDS011;3806;52.270;10.544;2023-06-14T13:58:00;9.80;;;2.50;;
7529;SDS011;3806;52.270;10.544;2023-06-14T14:00:26;5.65;;;2.53;;
7529;SDS011;3806;52.270;10.544;2023-06-14T14:02:51;5.03;;;2.28;;
7529;SDS011;3806;52.270;10.544;2023-06-14T14:05:17;5.28;;;2.22;;
7529;SDS011;3806;52.270;10.544;2023-06-14T14:07:42;3.75;;;2.88;;
7529;SDS011;3806;52.270;10.544;2023-06-14T14:10:08;5.45;;;2.30;;
7529;SDS011;3806;52.270;10.544;2023-06-14T14:12:34;4.43;;;2.75;;
7529;SDS011;3806;52.270;10.544;2023-06-14T14:15:00;3.95;;;1.83;;
7529;SDS011;3806;52.270;10.544;2023-06-14T14:17:25;6.88;;;2.22;;
7529;SDS011;3806;52.270;10.544;2023-06-14T14:19:51;4.53;;;2.20;;
7529;SDS011;3806;52.270;10.544;2023-06-14T14:22:16;4.35;;;2.53;;
7529;SDS011;3806;52.270;10.544;2023-06-14T14:24:42;4.85;;;2.53;;
7529;SDS011;3806;52.270;10.544;2023-06-14T14:27:07;4.28;;;2.10;;
7529;SDS011;3806;52.270;10.544;2023-06-14T14:29:33;3.33;;;2.20;;
7529;SDS011;3806;52.270;10.544;2023-06-14T14:31:58;5.07;;;2.20;;
7529;SDS011;3806;52.270;10.544;2023-06-14T14:34:24;3.78;;;1.98;;
7529;SDS011;3806;52.270;10.544;2023-06-14T14:36:50;7.13;;;2.40;;
7529;SDS011;3806;52.270;10.544;2023-06-14T14:39:16;3.38;;;1.80;;
7529;SDS011;3806;52.270;10.544;2023-06-14T14:41:41;5.90;;;2.38;;
7529;SDS011;3806;52.270;10.544;2023-06-14T14:44:07;3.90;;;2.50;;
7529;SDS011;3806;52.270;10.544;2023-06-14T14:46:32;9.35;;;2.78;;
7529;SDS011;3806;52.270;10.544;2023-06-14T14:48:58;6.40;;;2.28;;
7529;SDS011;3806;52.270;10.544;2023-06-14T14:51:25;3.50;;;2.22;;
7529;SDS011;3806;52.270;10.544;2023-06-14T14:53:50;5.60;;;2.58;;
7529;SDS011;3806;52.270;10.544;2023-06-14T14:56:16;4.85;;;2.50;;
7529;SDS011;3806;52.270;10.544;2023-06-14T14:58:42;5.45;;;2.78;;
7529;SDS011;3806;52.270;10.544;2023-06-14T15:01:07;6.10;;;2.42;;
7529;SDS011;3806;52.270;10.544;2023-06-14T15:03:33;4.35;;;2.30;;
7529;SDS011;3806;52.270;10.544;2023-06-14T15:05:58;7.85;;;2.25;;
7529;SDS011;3806;52.270;10.544;2023-06-14T15:08:24;4.05;;;2.08;;
7529;SDS011;3806;52.270;10.544;2023-06-14T15:10:49;3.40;;;2.25;;
7529;SDS011;3806;52.270;10.544;2023-06-14T15:13:15;4.80;;;2.25;;
7529;SDS011;3806;52.270;10.544;2023-06-14T15:15:41;3.08;;;2.60;;
7529;SDS011;3806;52.270;10.544;2023-06-14T15:18:06;5.70;;;2.10;;